ADDS METAR Data INFO
IDs: Format: Raw Decoded Include TAF

Data at: 1106 UTC 17 Jul 2018

KPEA 171055Z AUTO 00000KT 10SM CLR 18/16 A3009 RMK AO2 T01750159
KPEA 171035Z AUTO 00000KT 10SM CLR 18/16 A3008 RMK AO2 T01760159
KPEA 171015Z AUTO 00000KT 10SM CLR 18/16 A3008 RMK AO2 T01780158
KPEA 170955Z AUTO 00000KT 10SM CLR 18/16 A3008 RMK AO2 T01770158
KPEA 170935Z AUTO 00000KT 10SM CLR 18/16 A3008 RMK AO2 T01750158
KPEA 170915Z AUTO 00000KT 10SM CLR 18/16 A3008 RMK AO2 T01770159
KPEA 170855Z AUTO 00000KT 10SM CLR 18/16 A3008 RMK AO2 T01800160
KPEA 170835Z AUTO 00000KT 10SM CLR 18/16 A3009 RMK AO2 T01820160
KPEA 170815Z AUTO 00000KT 10SM CLR 18/16 A3008 RMK AO2 T01820161
KPEA 170755Z AUTO 00000KT 10SM CLR 18/16 A3007 RMK AO2 T01830163
KPEA 170735Z AUTO 00000KT 10SM CLR 18/16 A3009 RMK AO2 T01820164
KPEA 170715Z AUTO 00000KT 10SM CLR 19/17 A3009 RMK AO2 T01860165
KPEA 170655Z AUTO 00000KT 10SM CLR 19/17 A3009 RMK AO2 T01860166
KPEA 170635Z AUTO 00000KT 10SM CLR 19/17 A3009 RMK AO2 T01900166
KPEA 170615Z AUTO 00000KT 10SM CLR 19/17 A3009 RMK AO2 T01920168
KPEA 170555Z AUTO 00000KT 10SM CLR 20/17 A3009 RMK AO2 T02010169 10276 20201
KPEA 170535Z AUTO 00000KT 10SM CLR 20/17 A3008 RMK AO2 T02020170
KPEA 170515Z AUTO 00000KT 10SM CLR 20/17 A3008 RMK AO2 T02040171
KPEA 170455Z AUTO 00000KT 10SM CLR 20/17 A3008 RMK AO2 T02020172 402950202
KPEA 170435Z AUTO 00000KT 10SM CLR 20/18 A3007 RMK AO2 T02040175
KPEA 170415Z AUTO 00000KT 10SM CLR 20/18 A3007 RMK AO2 T02030175
KPEA 170355Z AUTO 00000KT 10SM CLR 21/18 A3008 RMK AO2 T02070175
KPEA 170335Z AUTO 00000KT 10SM CLR 21/18 A3007 RMK AO2 T02080175
KPEA 170315Z AUTO 00000KT 10SM CLR 21/18 A3007 RMK AO2 T02120175
KPEA 170255Z AUTO 00000KT 10SM CLR 22/17 A3006 RMK AO2 T02170172
KPEA 170235Z AUTO 00000KT 10SM CLR 22/18 A3006 RMK AO2 T02170178
KPEA 170215Z AUTO 00000KT 10SM CLR 22/17 A3004 RMK AO2 T02220173
KPEA 170155Z AUTO 00000KT 10SM CLR 23/18 A3003 RMK AO2 T02260175
KPEA 170135Z AUTO 00000KT 10SM CLR 24/17 A3003 RMK AO2 T02370172
KPEA 170115Z AUTO 00000KT 10SM CLR 25/17 A3003 RMK AO2 T02490170
KPEA 170055Z AUTO 00000KT 10SM CLR 26/17 A3003 RMK AO2 T02600170
KPEA 170035Z AUTO 01003KT 10SM CLR 27/17 A3003 RMK AO2 T02670169
KPEA 170015Z AUTO 02004KT 10SM CLR 27/17 A3003 RMK AO2 T02730165
KPEA 162355Z AUTO 01004KT 10SM CLR 28/16 A3003 RMK AO2 T02780159 10295 20278
KPEA 162335Z AUTO 01004KT 10SM CLR 28/16 A3003 RMK AO2 T02800164
KPEA 162315Z AUTO 01005KT 10SM CLR 29/17 A3003 RMK AO2 T02850174
KPEA 162255Z AUTO 01004KT 10SM CLR 29/16 A3003 RMK AO2 T02880163
KPEA 162235Z AUTO 00000KT 10SM CLR 29/17 A3004 RMK AO2 T02880166
KPEA 162215Z AUTO 00000KT 10SM CLR 29/14 A3004 RMK AO2 T02910144
KPEA 162155Z AUTO 34006G14KT 10SM CLR 29/16 A3004 RMK AO2 T02930156
KPEA 162135Z AUTO 35005KT 10SM CLR 29/15 A3004 RMK AO2 T02940145
KPEA 162115Z AUTO 35006KT 10SM CLR 30/15 A3003 RMK AO2 T02950150
KPEA 162055Z AUTO 36004KT 10SM CLR 29/14 A3004 RMK AO2 T02910140
KPEA 162035Z AUTO 36006KT 10SM CLR 29/15 A3004 RMK AO2 T02920147
KPEA 162015Z AUTO 01005KT 10SM CLR 29/16 A3005 RMK AO2 T02910162
KPEA 161955Z AUTO 33005KT 10SM CLR 29/16 A3005 RMK AO2 T02900156
KPEA 161935Z AUTO 35003KT 10SM CLR 29/17 A3006 RMK AO2 T02870166
KPEA 161915Z AUTO 34007KT 10SM CLR 29/17 A3005 RMK AO2 T02870166
KPEA 161855Z AUTO 33007KT 10SM CLR 29/19 A3006 RMK AO2 T02850185
KPEA 161835Z AUTO 32005KT 10SM CLR 29/19 A3006 RMK AO2 T02850187
KPEA 161815Z AUTO 33004KT 10SM CLR 28/20 A3006 RMK AO2 T02830197
KPEA 161755Z AUTO 00000KT 10SM CLR 28/21 A3006 RMK AO2 T02820205 10282 20222
KPEA 161735Z AUTO 35003KT 10SM CLR 28/20 A3007 RMK AO2 T02800198
KPEA 161715Z AUTO 00000KT 10SM SCT026 28/20 A3007 RMK AO2 T02770197
KPEA 161655Z AUTO 36005KT 10SM SCT022 28/20 A3007 RMK AO2 T02770203
KPEA 161635Z AUTO 35006KT 10SM SCT019 27/21 A3008 RMK AO2 T02720206
KPEA 161615Z AUTO 34004KT 10SM CLR 27/21 A3007 RMK AO2 T02700206
KPEA 161555Z AUTO 34004KT 10SM SCT016 27/21 A3007 RMK AO2 T02700209
KPEA 161535Z AUTO 33004KT 10SM SCT014 26/21 A3007 RMK AO2 T02600209
KPEA 161515Z AUTO 35005KT 10SM SCT012 26/21 A3007 RMK AO2 T02600211
KPEA 161455Z AUTO 35004KT 10SM SCT010 26/21 A3006 RMK AO2 T02600212
KPEA 161435Z AUTO 36003KT 10SM SCT010 26/21 A3005 RMK AO2 T02560210
KPEA 161415Z AUTO 35005KT 10SM SCT008 26/21 A3005 RMK AO2 T02550211
KPEA 161355Z AUTO 35003KT 10SM SCT008 SCT040 25/21 A3005 RMK AO2 T02510211
KPEA 161335Z AUTO 35006KT 10SM SCT008 BKN040 25/21 A3004 RMK AO2 T02480211
KPEA 161315Z AUTO 36006KT 10SM SCT006 24/21 A3003 RMK AO2 T02400210
KPEA 161255Z AUTO 35007KT 10SM BKN006 24/21 A3003 RMK AO2 T02370210
KPEA 161235Z AUTO 35004KT 10SM BKN006 23/21 A3003 RMK AO2 T02320210
KPEA 161215Z AUTO 00000KT 7SM SCT006 23/21 A3002 RMK AO2 T02280209
KPEA 161155Z AUTO 36005KT 7SM CLR 22/21 A3002 RMK AO2 T02210208 10238 20218
KPEA 161135Z AUTO 36004KT 7SM CLR 22/21 A3001 RMK AO2 T02200206
KPEA 161115Z AUTO 35004KT 7SM CLR 22/21 A3001 RMK AO2 T02190212
KPEA 161055Z AUTO 35003KT 7SM CLR 22/21 A3001 RMK AO2 T02180211
KPEA 161035Z AUTO 33003KT 7SM SCT080 22/21 A3001 RMK AO2 T02180210
KPEA 161015Z AUTO 34004KT 10SM SCT080 22/21 A3000 RMK AO2 T02180210
KPEA 160955Z AUTO 33004KT 7SM CLR 22/21 A3000 RMK AO2 T02180210
KPEA 160935Z AUTO 33003KT 7SM SCT070 22/21 A3000 RMK AO2 T02200213
KPEA 160915Z AUTO 00000KT 7SM SCT070 22/21 A2999 RMK AO2 T02200213
KPEA 160855Z AUTO 00000KT 7SM CLR 22/21 A2999 RMK AO2 T02220214
KPEA 160835Z AUTO 00000KT 7SM CLR 22/22 A2999 RMK AO2 T02240215
KPEA 160815Z AUTO 34003KT 7SM CLR 23/21 A2999 RMK AO2 T02250214
KPEA 160755Z AUTO 00000KT 10SM CLR 23/21 A2999 RMK AO2 T02250211
KPEA 160735Z AUTO 00000KT 10SM CLR 23/21 A2999 RMK AO2 T02250210
KPEA 160715Z AUTO 00000KT 10SM CLR 23/21 A3000 RMK AO2 T02300211
KPEA 160655Z AUTO 33003KT 10SM CLR 23/21 A3000 RMK AO2 T02280211
KPEA 160635Z AUTO 00000KT 10SM CLR 23/21 A2999 RMK AO2 T02300211
KPEA 160615Z AUTO 00000KT 10SM CLR 23/21 A3000 RMK AO2 T02340212
KPEA 160555Z AUTO 00000KT 10SM CLR 24/22 A3000 RMK AO2 T02380217 10307 20235
KPEA 160535Z AUTO 31003KT 10SM CLR 24/22 A2999 RMK AO2 T02350219
KPEA 160515Z AUTO 30003KT 10SM CLR 24/22 A2999 RMK AO2 T02370219
KPEA 160455Z AUTO 00000KT 10SM CLR 24/22 A2999 RMK AO2 T02360216 403170210
KPEA 160435Z AUTO 00000KT 10SM CLR 24/22 A2999 RMK AO2 T02380215
KPEA 160415Z AUTO 00000KT 10SM CLR 24/22 A2998 RMK AO2 T02400217
KPEA 160355Z AUTO 00000KT 10SM CLR 25/22 A2998 RMK AO2 T02470220
KPEA 160335Z AUTO 00000KT 10SM CLR 25/22 A2998 RMK AO2 T02480216
KPEA 160315Z AUTO 00000KT 10SM CLR 25/22 A2998 RMK AO2 T02470221
KPEA 160255Z AUTO 00000KT 10SM CLR 26/22 A2997 RMK AO2 T02550219
KPEA 160235Z AUTO 00000KT 10SM CLR 26/22 A2996 RMK AO2 T02550219
KPEA 160215Z AUTO 00000KT 10SM CLR 26/22 A2996 RMK AO2 T02610220
KPEA 160155Z AUTO 00000KT 10SM CLR 27/22 A2996 RMK AO2 T02650222
KPEA 160135Z AUTO 00000KT 10SM CLR 28/22 A2996 RMK AO2 T02750223
KPEA 160115Z AUTO 00000KT 10SM SCT038 SCT055 SCT065 29/22 A2996 RMK AO2 T02860223
KPEA 160055Z AUTO 00000KT 10SM SCT065 SCT080 30/22 A2996 RMK AO2 T02980217
KPEA 160035Z AUTO 00000KT 10SM CLR 30/22 A2995 RMK AO2 T03040215
KPEA 160015Z AUTO 00000KT 10SM CLR 31/21 A2995 RMK AO2 T03070213
KPEA 152355Z AUTO 00000KT 10SM CLR 31/21 A2995 RMK AO2 T03060214 10317 20280
KPEA 152335Z AUTO 26003KT 10SM SCT040 31/21 A2995 RMK AO2 T03100213
KPEA 152315Z AUTO 27003KT 10SM SCT040 32/22 A2995 RMK AO2 T03150218